sensor_id;sensor_type;location;lat;lon;timestamp;P1;durP1;ratioP1;P2;durP2;ratioP2
20076;SDS011;12348;42.710;23.378;2024-01-15T00:01:19;9.17;;;8.30;;
20076;SDS011;12348;42.710;23.378;2024-01-15T00:03:45;5.83;;;5.33;;
20076;SDS011;12348;42.710;23.378;2024-01-15T00:06:12;28.77;;;13.57;;
20076;SDS011;12348;42.710;23.378;2024-01-15T00:08:39;5.57;;;5.07;;
20076;SDS011;12348;42.710;23.378;2024-01-15T00:11:05;5.17;;;4.80;;
20076;SDS011;12348;42.710;23.378;2024-01-15T00:13:32;12.33;;;8.97;;
20076;SDS011;12348;42.710;23.378;2024-01-15T00:15:59;6.10;;;5.57;;
20076;SDS011;12348;42.710;23.378;2024-01-15T00:18:27;3.47;;;3.27;;
20076;SDS011;12348;42.710;23.378;2024-01-15T00:20:53;3.37;;;3.13;;
20076;SDS011;12348;42.710;23.378;2024-01-15T00:23:20;11.77;;;4.93;;
20076;SDS011;12348;42.710;23.378;2024-01-15T00:25:47;9.57;;;4.97;;
20076;SDS011;12348;42.710;23.378;2024-01-15T00:28:13;8.37;;;5.27;;
20076;SDS011;12348;42.710;23.378;2024-01-15T00:30:40;5.43;;;3.77;;
20076;SDS011;12348;42.710;23.378;2024-01-15T00:33:07;3.40;;;3.20;;
20076;SDS011;12348;42.710;23.378;2024-01-15T00:35:35;3.83;;;3.37;;
20076;SDS011;12348;42.710;23.378;2024-01-15T00:38:02;6.20;;;4.33;;
20076;SDS011;12348;42.710;23.378;2024-01-15T00:40:29;4.47;;;4.17;;
20076;SDS011;12348;42.710;23.378;2024-01-15T00:42:55;4.57;;;4.20;;
20076;SDS011;12348;42.710;23.378;2024-01-15T00:45:22;5.87;;;5.57;;
20076;SDS011;12348;42.710;23.378;2024-01-15T00:47:49;7.20;;;5.47;;
20076;SDS011;12348;42.710;23.378;2024-01-15T00:50:15;11.73;;;4.40;;
20076;SDS011;12348;42.710;23.378;2024-01-15T00:52:43;5.00;;;2.33;;
20076;SDS011;12348;42.710;23.378;2024-01-15T00:55:10;8.20;;;4.57;;
20076;SDS011;12348;42.710;23.378;2024-01-15T00:57:37;4.03;;;2.87;;
20076;SDS011;12348;42.710;23.378;2024-01-15T01:00:04;5.87;;;4.60;;
20076;SDS011;12348;42.710;23.378;2024-01-15T01:05:21;3.67;;;2.77;;
20076;SDS011;12348;42.710;23.378;2024-01-15T01:07:49;10.43;;;7.13;;
20076;SDS011;12348;42.710;23.378;2024-01-15T01:10:16;2.43;;;2.33;;
20076;SDS011;12348;42.710;23.378;2024-01-15T01:12:43;8.67;;;6.03;;
20076;SDS011;12348;42.710;23.378;2024-01-15T01:15:10;4.87;;;3.70;;
20076;SDS011;12348;42.710;23.378;2024-01-15T01:17:36;3.20;;;2.93;;
20076;SDS011;12348;42.710;23.378;2024-01-15T01:20:03;7.60;;;6.93;;
20076;SDS011;12348;42.710;23.378;2024-01-15T01:22:33;8.00;;;5.20;;
20076;SDS011;12348;42.710;23.378;2024-01-15T01:25:01;5.37;;;5.00;;
20076;SDS011;12348;42.710;23.378;2024-01-15T01:27:28;5.30;;;4.97;;
20076;SDS011;12348;42.710;23.378;2024-01-15T01:29:55;4.30;;;3.07;;
20076;SDS011;12348;42.710;23.378;2024-01-15T01:32:21;3.03;;;2.83;;
20076;SDS011;12348;42.710;23.378;2024-01-15T01:34:48;6.90;;;6.40;;
20076;SDS011;12348;42.710;23.378;2024-01-15T01:37:15;3.30;;;3.10;;
20076;SDS011;12348;42.710;23.378;2024-01-15T01:39:42;5.47;;;4.50;;
20076;SDS011;12348;42.710;23.378;2024-01-15T01:42:11;1.50;;;1.50;;
20076;SDS011;12348;42.710;23.378;2024-01-15T01:44:38;8.70;;;5.63;;
20076;SDS011;12348;42.710;23.378;2024-01-15T01:47:05;2.37;;;2.27;;
20076;SDS011;12348;42.710;23.378;2024-01-15T01:49:32;10.17;;;8.50;;
20076;SDS011;12348;42.710;23.378;2024-01-15T01:52:17;8.27;;;5.73;;
20076;SDS011;12348;42.710;23.378;2024-01-15T01:54:44;0.90;;;0.90;;
20076;SDS011;12348;42.710;23.378;2024-01-15T01:57:12;0.90;;;0.90;;
20076;SDS011;12348;42.710;23.378;2024-01-15T01:59:40;1.50;;;1.50;;
20076;SDS011;12348;42.710;23.378;2024-01-15T02:02:07;6.60;;;5.40;;
20076;SDS011;12348;42.710;23.378;2024-01-15T02:04:33;1.13;;;1.13;;
20076;SDS011;12348;42.710;23.378;2024-01-15T02:07:03;1.30;;;1.30;;
20076;SDS011;12348;42.710;23.378;2024-01-15T02:09:30;4.23;;;4.03;;
20076;SDS011;12348;42.710;23.378;2024-01-15T02:11:58;3.90;;;3.57;;
20076;SDS011;12348;42.710;23.378;2024-01-15T02:14:26;4.10;;;3.73;;
20076;SDS011;12348;42.710;23.378;2024-01-15T02:16:53;9.57;;;7.70;;
20076;SDS011;12348;42.710;23.378;2024-01-15T02:19:19;3.80;;;3.27;;
20076;SDS011;12348;42.710;23.378;2024-01-15T02:21:46;2.33;;;2.23;;
20076;SDS011;12348;42.710;23.378;2024-01-15T02:24:14;1.00;;;1.00;;
20076;SDS011;12348;42.710;23.378;2024-01-15T02:26:41;1.37;;;1.37;;
20076;SDS011;12348;42.710;23.378;2024-01-15T02:29:08;3.90;;;3.60;;
20076;SDS011;12348;42.710;23.378;2024-01-15T02:31:35;3.07;;;2.87;;
20076;SDS011;12348;42.710;23.378;2024-01-15T02:34:02;5.37;;;4.83;;
20076;SDS011;12348;42.710;23.378;2024-01-15T02:36:29;3.87;;;3.70;;
20076;SDS011;12348;42.710;23.378;2024-01-15T02:38:56;1.40;;;1.30;;
20076;SDS011;12348;42.710;23.378;2024-01-15T02:41:24;3.70;;;3.40;;
20076;SDS011;12348;42.710;23.378;2024-01-15T02:43:51;2.50;;;2.40;;
20076;SDS011;12348;42.710;23.378;2024-01-15T02:46:17;1.07;;;1.07;;
20076;SDS011;12348;42.710;23.378;2024-01-15T02:48:44;5.33;;;5.07;;
20076;SDS011;12348;42.710;23.378;2024-01-15T02:51:11;1.10;;;1.10;;
20076;SDS011;12348;42.710;23.378;2024-01-15T02:53:38;1.10;;;1.10;;
20076;SDS011;12348;42.710;23.378;2024-01-15T02:56:06;1.53;;;1.50;;
20076;SDS011;12348;42.710;23.378;2024-01-15T02:58:34;4.20;;;3.80;;
20076;SDS011;12348;42.710;23.378;2024-01-15T03:01:01;4.47;;;2.13;;
20076;SDS011;12348;42.710;23.378;2024-01-15T03:03:28;2.60;;;1.23;;
20076;SDS011;12348;42.710;23.378;2024-01-15T03:05:55;8.53;;;5.73;;
20076;SDS011;12348;42.710;23.378;2024-01-15T03:08:21;2.50;;;1.83;;
20076;SDS011;12348;42.710;23.378;2024-01-15T03:10:48;5.23;;;4.93;;
20076;SDS011;12348;42.710;23.378;2024-01-15T03:13:15;4.17;;;3.80;;
20076;SDS011;12348;42.710;23.378;2024-01-15T03:15:46;1.77;;;1.77;;
20076;SDS011;12348;42.710;23.378;2024-01-15T03:18:12;1.73;;;1.73;;
20076;SDS011;12348;42.710;23.378;2024-01-15T03:20:39;1.70;;;1.67;;
20076;SDS011;12348;42.710;23.378;2024-01-15T03:23:06;2.87;;;2.77;;
20076;SDS011;12348;42.710;23.378;2024-01-15T03:25:33;3.00;;;2.80;;
20076;SDS011;12348;42.710;23.378;2024-01-15T03:27:59;8.20;;;7.80;;
20076;SDS011;12348;42.710;23.378;2024-01-15T03:30:26;3.47;;;3.27;;
20076;SDS011;12348;42.710;23.378;2024-01-15T03:32:55;1.00;;;1.00;;
20076;SDS011;12348;42.710;23.378;2024-01-15T03:35:21;1.70;;;1.60;;
20076;SDS011;12348;42.710;23.378;2024-01-15T03:37:48;0.83;;;0.83;;
20076;SDS011;12348;42.710;23.378;2024-01-15T03:40:15;6.07;;;3.17;;
20076;SDS011;12348;42.710;23.378;2024-01-15T03:42:41;0.90;;;0.90;;
20076;SDS011;12348;42.710;23.378;2024-01-15T03:45:08;2.63;;;2.53;;
20076;SDS011;12348;42.710;23.378;2024-01-15T03:47:35;0.80;;;0.80;;
20076;SDS011;12348;42.710;23.378;2024-01-15T03:50:03;1.77;;;1.70;;
20076;SDS011;12348;42.710;23.378;2024-01-15T03:52:31;1.07;;;1.07;;
20076;SDS011;12348;42.710;23.378;2024-01-15T03:54:58;0.77;;;0.77;;
20076;SDS011;12348;42.710;23.378;2024-01-15T03:57:25;2.43;;;2.03;;
20076;SDS011;12348;42.710;23.378;2024-01-15T03:59:51;1.00;;;1.00;;
20076;SDS011;12348;42.710;23.378;2024-01-15T04:02:18;0.80;;;0.80;;
20076;SDS011;12348;42.710;23.378;2024-01-15T04:04:45;1.03;;;1.03;;
20076;SDS011;12348;42.710;23.378;2024-01-15T04:07:13;1.30;;;1.30;;
20076;SDS011;12348;42.710;23.378;2024-01-15T04:09:40;1.17;;;1.17;;
20076;SDS011;12348;42.710;23.378;2024-01-15T04:12:07;0.90;;;0.90;;
20076;SDS011;12348;42.710;23.378;2024-01-15T04:14:34;0.80;;;0.80;;
20076;SDS011;12348;42.710;23.378;2024-01-15T04:17:00;0.70;;;0.70;;
20076;SDS011;12348;42.710;23.378;2024-01-15T04:19:27;0.90;;;0.90;;
20076;SDS011;12348;42.710;23.378;2024-01-15T04:21:54;0.83;;;0.83;;
20076;SDS011;12348;42.710;23.378;2024-01-15T04:24:22;0.80;;;0.80;;
20076;SDS011;12348;42.710;23.378;2024-01-15T04:26:48;1.00;;;1.00;;
20076;SDS011;12348;42.710;23.378;2024-01-15T04:29:15;2.50;;;2.40;;
20076;SDS011;12348;42.710;23.378;2024-01-15T04:31:42;1.00;;;1.00;;
20076;SDS011;12348;42.710;23.378;2024-01-15T04:34:08;0.80;;;0.80;;
20076;SDS011;12348;42.710;23.378;2024-01-15T04:36:38;1.30;;;1.30;;
20076;SDS011;12348;42.710;23.378;2024-01-15T04:39:05;0.80;;;0.80;;
20076;SDS011;12348;42.710;23.378;2024-01-15T04:41:33;0.83;;;0.83;;
20076;SDS011;12348;42.710;23.378;2024-01-15T04:44:00;0.90;;;0.90;;
20076;SDS011;12348;42.710;23.378;2024-01-15T04:46:26;3.67;;;3.43;;
20076;SDS011;12348;42.710;23.378;2024-01-15T04:48:53;0.80;;;0.80;;
20076;SDS011;12348;42.710;23.378;2024-01-15T04:51:20;1.47;;;1.47;;
20076;SDS011;12348;42.710;23.378;2024-01-15T04:53:47;1.70;;;1.60;;
20076;SDS011;12348;42.710;23.378;2024-01-15T04:56:13;4.43;;;4.13;;
20076;SDS011;12348;42.710;23.378;2024-01-15T04:58:42;5.07;;;3.87;;
20076;SDS011;12348;42.710;23.378;2024-01-15T05:01:08;0.90;;;0.90;;
20076;SDS011;12348;42.710;23.378;2024-01-15T05:03:36;0.80;;;0.80;;
20076;SDS011;12348;42.710;23.378;2024-01-15T05:06:03;2.00;;;1.93;;
20076;SDS011;12348;42.710;23.378;2024-01-15T05:08:30;1.27;;;1.27;;
20076;SDS011;12348;42.710;23.378;2024-01-15T05:10:56;1.07;;;1.07;;
20076;SDS011;12348;42.710;23.378;2024-01-15T05:13:23;1.10;;;1.10;;
20076;SDS011;12348;42.710;23.378;2024-01-15T05:15:51;1.57;;;1.57;;
20076;SDS011;12348;42.710;23.378;2024-01-15T05:18:18;1.20;;;1.20;;
20076;SDS011;12348;42.710;23.378;2024-01-15T05:20:45;1.20;;;1.20;;
20076;SDS011;12348;42.710;23.378;2024-01-15T05:23:14;2.93;;;2.73;;
20076;SDS011;12348;42.710;23.378;2024-01-15T05:25:41;2.53;;;2.47;;
20076;SDS011;12348;42.710;23.378;2024-01-15T05:28:08;1.20;;;1.20;;
20076;SDS011;12348;42.710;23.378;2024-01-15T05:30:35;8.33;;;7.93;;
20076;SDS011;12348;42.710;23.378;2024-01-15T05:33:03;1.33;;;1.33;;
20076;SDS011;12348;42.710;23.378;2024-01-15T05:35:32;2.07;;;1.93;;
20076;SDS011;12348;42.710;23.378;2024-01-15T05:37:59;4.37;;;4.07;;
20076;SDS011;12348;42.710;23.378;2024-01-15T05:40:25;1.60;;;1.57;;
20076;SDS011;12348;42.710;23.378;2024-01-15T05:42:52;5.60;;;2.10;;
20076;SDS011;12348;42.710;23.378;2024-01-15T05:45:19;3.47;;;3.17;;
20076;SDS011;12348;42.710;23.378;2024-01-15T05:47:46;5.27;;;4.87;;
20076;SDS011;12348;42.710;23.378;2024-01-15T05:50:14;2.53;;;2.43;;
20076;SDS011;12348;42.710;23.378;2024-01-15T05:52:40;6.27;;;5.73;;
20076;SDS011;12348;42.710;23.378;2024-01-15T05:55:07;2.70;;;2.50;;
20076;SDS011;12348;42.710;23.378;2024-01-15T05:57:35;3.50;;;3.03;;
20076;SDS011;12348;42.710;23.378;2024-01-15T06:00:02;3.03;;;2.83;;
20076;SDS011;12348;42.710;23.378;2024-01-15T06:02:29;3.33;;;3.13;;
20076;SDS011;12348;42.710;23.378;2024-01-15T06:04:56;0.93;;;0.93;;
20076;SDS011;12348;42.710;23.378;2024-01-15T06:07:24;1.20;;;1.20;;
20076;SDS011;12348;42.710;23.378;2024-01-15T06:09:51;0.80;;;0.80;;
20076;SDS011;12348;42.710;23.378;2024-01-15T06:12:19;1.00;;;1.00;;
20076;SDS011;12348;42.710;23.378;2024-01-15T06:14:45;5.17;;;3.30;;
20076;SDS011;12348;42.710;23.378;2024-01-15T06:17:12;4.17;;;3.90;;
20076;SDS011;12348;42.710;23.378;2024-01-15T06:19:39;0.90;;;0.90;;
20076;SDS011;12348;42.710;23.378;2024-01-15T06:22:06;5.37;;;5.07;;
20076;SDS011;12348;42.710;23.378;2024-01-15T06:24:34;1.07;;;1.07;;
20076;SDS011;12348;42.710;23.378;2024-01-15T06:27:01;3.93;;;3.67;;
20076;SDS011;12348;42.710;23.378;2024-01-15T06:29:27;7.10;;;5.13;;
20076;SDS011;12348;42.710;23.378;2024-01-15T06:31:56;3.50;;;3.20;;
20076;SDS011;12348;42.710;23.378;2024-01-15T06:34:23;3.40;;;3.20;;
20076;SDS011;12348;42.710;23.378;2024-01-15T06:36:50;5.43;;;4.40;;
20076;SDS011;12348;42.710;23.378;2024-01-15T06:39:16;5.17;;;3.07;;
20076;SDS011;12348;42.710;23.378;2024-01-15T06:41:45;6.07;;;5.47;;
20076;SDS011;12348;42.710;23.378;2024-01-15T06:44:12;3.67;;;3.37;;
20076;SDS011;12348;42.710;23.378;2024-01-15T06:46:41;5.40;;;4.23;;
20076;SDS011;12348;42.710;23.378;2024-01-15T06:49:08;4.43;;;3.90;;
20076;SDS011;12348;42.710;23.378;2024-01-15T06:51:35;1.13;;;1.13;;
20076;SDS011;12348;42.710;23.378;2024-01-15T06:54:02;5.53;;;5.00;;
20076;SDS011;12348;42.710;23.378;2024-01-15T06:56:29;12.23;;;9.40;;
20076;SDS011;12348;42.710;23.378;2024-01-15T06:58:57;7.40;;;6.67;;
20076;SDS011;12348;42.710;23.378;2024-01-15T07:01:24;3.13;;;2.50;;
20076;SDS011;12348;42.710;23.378;2024-01-15T07:03:50;6.80;;;3.67;;
20076;SDS011;12348;42.710;23.378;2024-01-15T07:06:17;8.53;;;7.70;;
20076;SDS011;12348;42.710;23.378;2024-01-15T07:08:44;11.93;;;6.20;;
20076;SDS011;12348;42.710;23.378;2024-01-15T07:11:12;4.13;;;3.83;;
20076;SDS011;12348;42.710;23.378;2024-01-15T07:13:39;5.50;;;3.73;;
20076;SDS011;12348;42.710;23.378;2024-01-15T07:16:07;6.37;;;3.97;;
20076;SDS011;12348;42.710;23.378;2024-01-15T07:18:33;9.17;;;4.37;;
20076;SDS011;12348;42.710;23.378;2024-01-15T07:21:00;4.80;;;4.40;;
20076;SDS011;12348;42.710;23.378;2024-01-15T07:23:28;1.60;;;1.60;;
20076;SDS011;12348;42.710;23.378;2024-01-15T07:25:54;17.07;;;9.40;;
20076;SDS011;12348;42.710;23.378;2024-01-15T07:28:21;3.87;;;3.57;;
20076;SDS011;12348;42.710;23.378;2024-01-15T07:30:48;1.57;;;1.47;;
20076;SDS011;12348;42.710;23.378;2024-01-15T07:33:16;2.27;;;2.17;;
20076;SDS011;12348;42.710;23.378;2024-01-15T07:35:43;4.67;;;4.30;;
20076;SDS011;12348;42.710;23.378;2024-01-15T07:38:11;11.00;;;6.63;;
20076;SDS011;12348;42.710;23.378;2024-01-15T07:40:38;2.73;;;2.53;;
20076;SDS011;12348;42.710;23.378;2024-01-15T07:43:05;5.57;;;5.07;;
20076;SDS011;12348;42.710;23.378;2024-01-15T07:45:32;5.43;;;4.93;;
20076;SDS011;12348;42.710;23.378;2024-01-15T07:47:58;14.30;;;6.80;;
20076;SDS011;12348;42.710;23.378;2024-01-15T07:50:26;4.27;;;3.93;;
20076;SDS011;12348;42.710;23.378;2024-01-15T07:52:53;6.77;;;5.00;;
20076;SDS011;12348;42.710;23.378;2024-01-15T07:55:20;19.13;;;10.23;;
20076;SDS011;12348;42.710;23.378;2024-01-15T07:57:46;3.60;;;3.40;;
20076;SDS011;12348;42.710;23.378;2024-01-15T08:00:15;3.33;;;3.13;;
20076;SDS011;12348;42.710;23.378;2024-01-15T08:02:42;6.47;;;5.00;;
20076;SDS011;12348;42.710;23.378;2024-01-15T08:05:08;6.57;;;5.90;;
20076;SDS011;12348;42.710;23.378;2024-01-15T08:07:36;2.20;;;2.10;;
20076;SDS011;12348;42.710;23.378;2024-01-15T08:10:03;11.43;;;6.63;;
20076;SDS011;12348;42.710;23.378;2024-01-15T08:12:30;4.50;;;4.10;;
20076;SDS011;12348;42.710;23.378;2024-01-15T08:14:57;8.77;;;5.63;;
20076;SDS011;12348;42.710;23.378;2024-01-15T08:17:24;7.43;;;5.60;;
20076;SDS011;12348;42.710;23.378;2024-01-15T08:19:53;7.63;;;6.80;;
20076;SDS011;12348;42.710;23.378;2024-01-15T08:22:21;4.83;;;4.43;;
20076;SDS011;12348;42.710;23.378;2024-01-15T08:24:50;4.83;;;4.43;;
20076;SDS011;12348;42.710;23.378;2024-01-15T08:27:17;10.40;;;7.43;;
20076;SDS011;12348;42.710;23.378;2024-01-15T08:29:45;8.57;;;6.93;;
20076;SDS011;12348;42.710;23.378;2024-01-15T08:32:11;21.00;;;6.93;;
20076;SDS011;12348;42.710;23.378;2024-01-15T08:34:40;5.90;;;4.97;;
20076;SDS011;12348;42.710;23.378;2024-01-15T08:37:07;9.23;;;5.40;;
20076;SDS011;12348;42.710;23.378;2024-01-15T08:39:33;7.90;;;6.60;;
20076;SDS011;12348;42.710;23.378;2024-01-15T08:42:05;22.73;;;11.87;;
20076;SDS011;12348;42.710;23.378;2024-01-15T08:44:31;9.13;;;7.43;;
20076;SDS011;12348;42.710;23.378;2024-01-15T08:46:58;14.40;;;9.00;;
20076;SDS011;12348;42.710;23.378;2024-01-15T08:49:25;17.57;;;8.80;;
20076;SDS011;12348;42.710;23.378;2024-01-15T08:51:51;19.27;;;10.17;;
20076;SDS011;12348;42.710;23.378;2024-01-15T08:54:18;11.43;;;8.50;;
20076;SDS011;12348;42.710;23.378;2024-01-15T08:56:45;14.33;;;10.83;;
20076;SDS011;12348;42.710;23.378;2024-01-15T08:59:14;18.57;;;9.73;;
20076;SDS011;12348;42.710;23.378;2024-01-15T09:01:41;15.63;;;9.10;;
20076;SDS011;12348;42.710;23.378;2024-01-15T09:04:08;13.03;;;8.10;;
20076;SDS011;12348;42.710;23.378;2024-01-15T09:06:34;28.40;;;10.23;;
20076;SDS011;12348;42.710;23.378;2024-01-15T09:09:01;8.13;;;7.37;;
20076;SDS011;12348;42.710;23.378;2024-01-15T09:11:30;17.10;;;7.50;;
20076;SDS011;12348;42.710;23.378;2024-01-15T09:13:57;13.90;;;7.50;;
20076;SDS011;12348;42.710;23.378;2024-01-15T09:16:26;9.83;;;6.47;;
20076;SDS011;12348;42.710;23.378;2024-01-15T09:18:53;11.90;;;8.43;;
20076;SDS011;12348;42.710;23.378;2024-01-15T09:21:22;14.07;;;8.13;;
20076;SDS011;12348;42.710;23.378;2024-01-15T09:23:49;26.03;;;11.17;;
20076;SDS011;12348;42.710;23.378;2024-01-15T09:26:16;36.43;;;14.90;;
20076;SDS011;12348;42.710;23.378;2024-01-15T09:28:42;24.23;;;11.77;;
20076;SDS011;12348;42.710;23.378;2024-01-15T09:31:09;16.60;;;8.90;;
20076;SDS011;12348;42.710;23.378;2024-01-15T09:33:38;30.40;;;15.30;;
20076;SDS011;12348;42.710;23.378;2024-01-15T09:36:05;17.53;;;10.00;;
20076;SDS011;12348;42.710;23.378;2024-01-15T09:38:32;18.97;;;10.97;;
20076;SDS011;12348;42.710;23.378;2024-01-15T09:40:59;32.27;;;14.50;;
20076;SDS011;12348;42.710;23.378;2024-01-15T09:43:26;20.80;;;10.97;;
20076;SDS011;12348;42.710;23.378;2024-01-15T09:45:53;15.03;;;9.83;;
20076;SDS011;12348;42.710;23.378;2024-01-15T09:48:21;12.13;;;8.87;;
20076;SDS011;12348;42.710;23.378;2024-01-15T09:50:49;21.67;;;11.17;;
20076;SDS011;12348;42.710;23.378;2024-01-15T09:53:17;21.20;;;11.53;;
20076;SDS011;12348;42.710;23.378;2024-01-15T09:55:46;21.60;;;12.03;;
20076;SDS011;12348;42.710;23.378;2024-01-15T09:58:16;21.77;;;9.57;;
20076;SDS011;12348;42.710;23.378;2024-01-15T10:00:42;13.00;;;8.33;;
20076;SDS011;12348;42.710;23.378;2024-01-15T10:03:10;23.43;;;9.53;;
20076;SDS011;12348;42.710;23.378;2024-01-15T10:05:38;13.90;;;9.43;;
20076;SDS011;12348;42.710;23.378;2024-01-15T10:08:06;23.67;;;8.93;;
20076;SDS011;12348;42.710;23.378;2024-01-15T10:10:33;25.60;;;10.53;;
20076;SDS011;12348;42.710;23.378;2024-01-15T10:13:03;24.90;;;13.37;;
20076;SDS011;12348;42.710;23.378;2024-01-15T10:15:33;17.57;;;9.77;;
20076;SDS011;12348;42.710;23.378;2024-01-15T10:18:01;15.43;;;7.40;;
20076;SDS011;12348;42.710;23.378;2024-01-15T10:20:28;20.80;;;8.93;;
20076;SDS011;12348;42.710;23.378;2024-01-15T10:22:57;31.90;;;13.50;;
20076;SDS011;12348;42.710;23.378;2024-01-15T10:25:26;19.83;;;8.50;;
20076;SDS011;12348;42.710;23.378;2024-01-15T10:27:59;11.97;;;7.00;;
20076;SDS011;12348;42.710;23.378;2024-01-15T10:30:27;24.47;;;9.27;;
20076;SDS011;12348;42.710;23.378;2024-01-15T10:32:57;10.67;;;4.40;;
20076;SDS011;12348;42.710;23.378;2024-01-15T10:35:26;14.10;;;5.43;;
20076;SDS011;12348;42.710;23.378;2024-01-15T10:37:54;15.30;;;10.27;;
20076;SDS011;12348;42.710;23.378;2024-01-15T10:40:21;10.17;;;7.23;;
20076;SDS011;12348;42.710;23.378;2024-01-15T10:42:49;9.90;;;7.20;;
20076;SDS011;12348;42.710;23.378;2024-01-15T10:45:16;9.37;;;6.97;;
20076;SDS011;12348;42.710;23.378;2024-01-15T10:47:43;8.17;;;5.67;;
20076;SDS011;12348;42.710;23.378;2024-01-15T10:50:11;28.17;;;11.23;;
20076;SDS011;12348;42.710;23.378;2024-01-15T10:52:39;13.77;;;6.03;;
20076;SDS011;12348;42.710;23.378;2024-01-15T10:55:07;20.23;;;12.30;;
20076;SDS011;12348;42.710;23.378;2024-01-15T10:57:35;11.93;;;8.57;;
20076;SDS011;12348;42.710;23.378;2024-01-15T11:00:05;10.00;;;6.60;;
20076;SDS011;12348;42.710;23.378;2024-01-15T11:02:32;8.37;;;5.50;;
20076;SDS011;12348;42.710;23.378;2024-01-15T11:05:02;10.63;;;6.93;;
20076;SDS011;12348;42.710;23.378;2024-01-15T11:07:29;2.47;;;1.77;;
20076;SDS011;12348;42.710;23.378;2024-01-15T11:09:56;28.40;;;9.50;;
20076;SDS011;12348;42.710;23.378;2024-01-15T11:12:24;19.23;;;8.03;;
20076;SDS011;12348;42.710;23.378;2024-01-15T11:14:51;20.53;;;12.73;;
20076;SDS011;12348;42.710;23.378;2024-01-15T11:17:21;22.40;;;9.07;;
20076;SDS011;12348;42.710;23.378;2024-01-15T11:19:48;13.73;;;8.43;;
20076;SDS011;12348;42.710;23.378;2024-01-15T11:25:15;37.40;;;14.50;;
20076;SDS011;12348;42.710;23.378;2024-01-15T11:27:45;19.13;;;11.97;;
20076;SDS011;12348;42.710;23.378;2024-01-15T11:30:16;22.10;;;12.87;;
20076;SDS011;12348;42.710;23.378;2024-01-15T11:32:46;29.30;;;15.97;;
20076;SDS011;12348;42.710;23.378;2024-01-15T11:35:13;15.77;;;9.53;;
20076;SDS011;12348;42.710;23.378;2024-01-15T11:37:57;20.17;;;11.40;;
20076;SDS011;12348;42.710;23.378;2024-01-15T11:40:35;34.30;;;14.37;;
20076;SDS011;12348;42.710;23.378;2024-01-15T11:43:04;28.47;;;15.73;;
20076;SDS011;12348;42.710;23.378;2024-01-15T11:45:31;24.77;;;12.27;;
20076;SDS011;12348;42.710;23.378;2024-01-15T11:50:50;22.07;;;11.30;;
20076;SDS011;12348;42.710;23.378;2024-01-15T11:53:17;19.97;;;10.93;;
20076;SDS011;12348;42.710;23.378;2024-01-15T11:55:53;13.03;;;7.67;;
20076;SDS011;12348;42.710;23.378;2024-01-15T11:58:24;17.30;;;8.13;;
20076;SDS011;12348;42.710;23.378;2024-01-15T12:00:51;17.40;;;10.83;;
20076;SDS011;12348;42.710;23.378;2024-01-15T12:03:21;14.77;;;9.67;;
20076;SDS011;12348;42.710;23.378;2024-01-15T12:05:48;23.00;;;12.20;;
20076;SDS011;12348;42.710;23.378;2024-01-15T12:08:20;12.73;;;9.63;;
20076;SDS011;12348;42.710;23.378;2024-01-15T12:10:47;24.77;;;10.90;;
20076;SDS011;12348;42.710;23.378;2024-01-15T12:13:14;15.50;;;9.33;;
20076;SDS011;12348;42.710;23.378;2024-01-15T12:15:42;20.93;;;11.40;;
20076;SDS011;12348;42.710;23.378;2024-01-15T12:18:11;23.13;;;11.17;;
20076;SDS011;12348;42.710;23.378;2024-01-15T12:20:41;14.50;;;9.17;;
20076;SDS011;12348;42.710;23.378;2024-01-15T12:23:09;35.93;;;18.47;;
20076;SDS011;12348;42.710;23.378;2024-01-15T12:25:36;14.83;;;9.23;;
20076;SDS011;12348;42.710;23.378;2024-01-15T12:28:02;12.63;;;7.13;;
20076;SDS011;12348;42.710;23.378;2024-01-15T12:30:30;27.10;;;13.17;;
20076;SDS011;12348;42.710;23.378;2024-01-15T12:32:57;14.73;;;8.63;;
20076;SDS011;12348;42.710;23.378;2024-01-15T12:35:24;16.60;;;9.60;;
20076;SDS011;12348;42.710;23.378;2024-01-15T12:37:53;27.23;;;8.70;;
20076;SDS011;12348;42.710;23.378;2024-01-15T12:40:20;15.37;;;9.73;;
20076;SDS011;12348;42.710;23.378;2024-01-15T12:42:49;15.90;;;10.83;;
20076;SDS011;12348;42.710;23.378;2024-01-15T12:45:15;8.97;;;8.07;;
20076;SDS011;12348;42.710;23.378;2024-01-15T12:47:43;37.27;;;15.77;;
20076;SDS011;12348;42.710;23.378;2024-01-15T12:50:10;21.43;;;11.27;;
20076;SDS011;12348;42.710;23.378;2024-01-15T12:52:39;68.30;;;24.73;;
20076;SDS011;12348;42.710;23.378;2024-01-15T12:55:09;21.90;;;9.80;;
20076;SDS011;12348;42.710;23.378;2024-01-15T12:57:36;19.97;;;10.90;;
20076;SDS011;12348;42.710;23.378;2024-01-15T13:00:04;26.10;;;11.73;;
20076;SDS011;12348;42.710;23.378;2024-01-15T13:02:32;41.30;;;15.47;;
20076;SDS011;12348;42.710;23.378;2024-01-15T13:04:59;16.10;;;9.43;;
20076;SDS011;12348;42.710;23.378;2024-01-15T13:07:26;14.97;;;9.67;;
20076;SDS011;12348;42.710;23.378;2024-01-15T13:09:53;17.30;;;9.50;;
20076;SDS011;12348;42.710;23.378;2024-01-15T13:12:21;44.27;;;16.97;;
20076;SDS011;12348;42.710;23.378;2024-01-15T13:14:48;27.93;;;16.37;;
20076;SDS011;12348;42.710;23.378;2024-01-15T13:17:15;21.73;;;10.10;;
20076;SDS011;12348;42.710;23.378;2024-01-15T13:19:42;16.27;;;9.33;;
20076;SDS011;12348;42.710;23.378;2024-01-15T13:22:08;27.33;;;11.73;;
20076;SDS011;12348;42.710;23.378;2024-01-15T13:24:38;26.37;;;13.13;;
20076;SDS011;12348;42.710;23.378;2024-01-15T13:27:05;14.23;;;11.47;;
20076;SDS011;12348;42.710;23.378;2024-01-15T13:29:33;24.93;;;18.80;;
20076;SDS011;12348;42.710;23.378;2024-01-15T13:32:00;13.33;;;9.70;;
20076;SDS011;12348;42.710;23.378;2024-01-15T13:34:28;23.80;;;11.30;;
20076;SDS011;12348;42.710;23.378;2024-01-15T13:36:55;21.03;;;8.77;;
20076;SDS011;12348;42.710;23.378;2024-01-15T13:39:22;22.43;;;10.90;;
20076;SDS011;12348;42.710;23.378;2024-01-15T13:41:49;13.40;;;10.07;;
20076;SDS011;12348;42.710;23.378;2024-01-15T13:44:15;14.83;;;6.90;;
20076;SDS011;12348;42.710;23.378;2024-01-15T13:46:43;23.03;;;8.30;;
20076;SDS011;12348;42.710;23.378;2024-01-15T13:49:10;17.33;;;11.37;;
20076;SDS011;12348;42.710;23.378;2024-01-15T13:51:37;17.33;;;11.17;;
20076;SDS011;12348;42.710;23.378;2024-01-15T13:54:04;23.53;;;12.33;;
20076;SDS011;12348;42.710;23.378;2024-01-15T13:56:30;35.03;;;14.97;;
20076;SDS011;12348;42.710;23.378;2024-01-15T13:58:57;11.77;;;7.40;;
20076;SDS011;12348;42.710;23.378;2024-01-15T14:01:24;21.70;;;8.43;;
20076;SDS011;12348;42.710;23.378;2024-01-15T14:03:53;13.73;;;8.03;;
20076;SDS011;12348;42.710;23.378;2024-01-15T14:06:19;19.37;;;8.23;;
20076;SDS011;12348;42.710;23.378;2024-01-15T14:08:46;16.60;;;9.23;;
20076;SDS011;12348;42.710;23.378;2024-01-15T14:11:13;24.07;;;11.93;;
20076;SDS011;12348;42.710;23.378;2024-01-15T14:13:40;18.37;;;9.23;;
20076;SDS011;12348;42.710;23.378;2024-01-15T14:16:07;11.17;;;8.17;;
20076;SDS011;12348;42.710;23.378;2024-01-15T14:18:34;15.20;;;9.77;;
20076;SDS011;12348;42.710;23.378;2024-01-15T14:21:03;14.43;;;9.87;;
20076;SDS011;12348;42.710;23.378;2024-01-15T14:23:30;20.50;;;10.50;;
20076;SDS011;12348;42.710;23.378;2024-01-15T14:25:56;10.77;;;9.03;;
20076;SDS011;12348;42.710;23.378;2024-01-15T14:28:23;21.20;;;10.80;;
20076;SDS011;12348;42.710;23.378;2024-01-15T14:30:50;12.37;;;6.67;;
20076;SDS011;12348;42.710;23.378;2024-01-15T14:33:17;15.90;;;9.97;;
20076;SDS011;12348;42.710;23.378;2024-01-15T14:35:44;14.13;;;8.07;;